Time;durP1;ratioP1;P1;durP2;ratioP2;P2;SDS_P1;SDS_P2;PMS_P1;PMS_P2;Temp;Humidity;BMP_temperature;BMP_pressure;BME280_temperature;BME280_humidity;BME280_pressure;Samples;Min_cycle;Max_cycle;Signal;HPM_P1;HPM_P2
2022/11/27 00:01:46;;;;;;;;;7.25;5.50;;;;;10.58;100.00;102172.22;5074188;28;64251;-76
2022/11/27 00:04:11;;;;;;;;;9.75;5.25;;;;;10.58;100.00;102163.41;5067837;28;62221;-75
2022/11/27 00:06:38;;;;;;;;;6.25;5.75;;;;;10.59;100.00;102165.19;5070335;28;45363;-76
2022/11/27 00:09:06;;;;;;;;;9.50;7.75;;;;;10.59;100.00;102157.25;5055051;28;48959;-76
2022/11/27 00:11:32;;;;;;;;;7.67;7.33;;;;;10.55;100.00;102155.38;5054069;28;45501;-75
2022/11/27 00:13:58;;;;;;;;;6.25;6.00;;;;;10.55;100.00;102148.38;5072985;28;58581;-77
2022/11/27 00:16:25;;;;;;;;;6.25;4.00;;;;;10.57;100.00;102146.66;5053077;28;45358;-76
2022/11/27 00:18:51;;;;;;;;;13.75;12.25;;;;;10.58;100.00;102142.25;5074529;28;45852;-76
2022/11/27 00:21:21;;;;;;;;;12.00;8.25;;;;;10.58;100.00;102147.56;5056013;28;45437;-76
2022/11/27 00:23:47;;;;;;;;;12.25;9.50;;;;;10.56;100.00;102136.06;5071408;28;45331;-76
2022/11/27 00:26:13;;;;;;;;;8.25;6.00;;;;;10.56;100.00;102128.13;5076888;28;45337;-76
2022/11/27 00:28:39;;;;;;;;;14.75;8.75;;;;;10.55;100.00;102127.22;5069675;28;45822;-76
2022/11/27 00:31:07;;;;;;;;;8.00;6.00;;;;;10.53;100.00;102117.44;5052762;28;45421;-76
2022/11/27 00:33:32;;;;;;;;;9.75;7.75;;;;;10.52;100.00;102110.38;5071521;28;45494;-75
2022/11/27 00:36:05;;;;;;;;;8.75;6.00;;;;;10.50;100.00;102115.63;5073903;28;45497;-76
2022/11/27 00:38:31;;;;;;;;;8.00;6.33;;;;;10.49;100.00;102116.44;5076688;28;46772;-76
2022/11/27 00:41:10;;;;;;;;;7.75;6.00;;;;;10.48;100.00;102099.72;5053049;28;45254;-75
2022/11/27 00:43:36;;;;;;;;;9.00;7.25;;;;;10.47;100.00;102107.59;5076884;28;45316;-76
2022/11/27 00:46:02;;;;;;;;;6.50;6.25;;;;;10.43;100.00;102108.34;5057725;28;45299;-77
2022/11/27 00:48:29;;;;;;;;;8.00;6.50;;;;;10.44;100.00;102103.13;5054259;28;48052;-76
2022/11/27 00:51:03;;;;;;;;;5.33;5.33;;;;;10.44;100.00;102110.16;5074477;28;45275;-76
2022/11/27 00:53:30;;;;;;;;;10.00;7.00;;;;;10.46;100.00;102109.34;5073268;28;45196;-76
2022/11/27 00:55:55;;;;;;;;;12.75;6.50;;;;;10.44;100.00;102104.88;5071173;27;45575;-76
2022/11/27 00:58:21;;;;;;;;;7.00;7.00;;;;;10.46;100.00;102111.09;5079110;27;45718;-76
2022/11/27 01:00:54;;;;;;;;;9.00;7.00;;;;;10.43;100.00;102098.66;5058209;28;45423;-76
2022/11/27 01:03:19;;;;;;;;;9.25;5.75;;;;;10.45;100.00;102093.47;5072738;28;45738;-76
2022/11/27 01:05:45;;;;;;;;;8.50;7.00;;;;;10.45;100.00;102085.53;5075623;28;55834;-76
2022/11/27 01:08:10;;;;;;;;;8.00;7.00;;;;;10.45;100.00;102078.50;5076044;28;49433;-76
2022/11/27 01:10:35;;;;;;;;;8.75;7.00;;;;;10.46;100.00;102069.72;5070397;28;60379;-76
2022/11/27 01:13:01;;;;;;;;;6.75;6.75;;;;;10.45;100.00;102075.88;5068840;28;62162;-76
2022/11/27 01:15:26;;;;;;;;;8.00;6.00;;;;;10.43;100.00;102071.38;5058160;28;45315;-75
2022/11/27 01:17:51;;;;;;;;;10.25;7.75;;;;;10.46;100.00;102074.13;5075397;28;46331;-76
2022/11/27 01:20:17;;;;;;;;;7.67;6.00;;;;;10.41;100.00;102062.50;5075644;28;64401;-76
2022/11/27 01:22:42;;;;;;;;;9.00;7.00;;;;;10.45;100.00;102070.59;5058153;28;45389;-75
2022/11/27 01:25:07;;;;;;;;;7.33;3.00;;;;;10.44;100.00;102079.38;5075210;28;59991;-76
2022/11/27 01:27:33;;;;;;;;;4.00;4.00;;;;;10.45;100.00;102078.50;5076122;28;46232;-76
2022/11/27 01:29:59;;;;;;;;;5.00;5.00;;;;;10.45;100.00;102078.50;5073551;28;45292;-76
2022/11/27 01:32:24;;;;;;;;;7.00;7.00;;;;;10.45;100.00;102085.53;5076179;28;45326;-76
2022/11/27 01:34:50;;;;;;;;;10.00;7.25;;;;;10.45;100.00;102082.91;5076488;28;45306;-76
2022/11/27 01:37:15;;;;;;;;;8.50;5.75;;;;;10.46;100.00;102085.56;5056548;28;63382;-76
2022/11/27 01:39:40;;;;;;;;;7.25;6.00;;;;;10.47;100.00;102078.53;5074350;28;65491;-77
2022/11/27 01:42:09;;;;;;;;;6.00;6.00;;;;;10.47;100.00;102075.91;5078621;28;60684;-76
2022/11/27 01:44:34;;;;;;;;;7.00;5.67;;;;;10.48;100.00;102070.66;5077887;28;45307;-76
2022/11/27 01:47:03;;;;;;;;;7.25;7.25;;;;;10.48;100.00;102073.31;5079294;28;46605;-75
2022/11/27 01:49:33;;;;;;;;;5.67;4.00;;;;;10.49;100.00;102074.19;5075645;28;45256;-77
2022/11/27 01:52:05;;;;;;;;;6.67;5.67;;;;;10.44;100.00;102059.97;5061018;28;45331;-76
2022/11/27 01:54:36;;;;;;;;;7.25;5.75;;;;;10.46;100.00;102067.09;5060840;28;45437;-76
2022/11/27 01:57:05;;;;;;;;;6.00;5.33;;;;;10.47;100.00;102067.97;5060991;28;46048;-76
2022/11/27 01:59:31;;;;;;;;;5.00;5.00;;;;;10.51;100.00;102063.72;5081799;27;45593;-76
2022/11/27 02:01:56;;;;;;;;;4.75;4.75;;;;;10.47;100.00;102055.66;5053111;28;45422;-76
2022/11/27 02:04:21;;;;;;;;;9.50;5.25;;;;;10.48;100.00;102060.09;5072638;28;57638;-76
2022/11/27 02:06:47;;;;;;;;;6.67;6.00;;;;;10.49;100.00;102054.00;5041623;28;65878;-77
2022/11/27 02:09:12;;;;;;;;;7.00;4.00;;;;;10.48;100.00;102057.47;5039135;28;45482;-76
2022/11/27 02:12:29;;;;;;;;;7.50;5.50;;;;;10.48;100.00;102060.09;5051348;28;49648;-76
2022/11/27 02:15:10;;;;;;;;;8.25;6.75;;;;;10.48;100.00;102062.75;4999417;28;45509;-76
2022/11/27 02:17:46;;;;;;;;;4.00;4.00;;;;;10.47;100.00;102053.03;5057972;28;46058;-76
2022/11/27 02:20:30;;;;;;;;;7.75;3.00;;;;;10.47;100.00;102050.38;5060565;28;46654;-76
2022/11/27 02:22:56;;;;;;;;;6.50;3.75;;;;;10.48;100.00;102040.72;5078611;28;45495;-77
2022/11/27 02:25:52;;;;;;;;;4.75;3.75;;;;;10.48;100.00;102035.44;5078931;28;45361;-77
2022/11/27 02:28:26;;;;;;;;;4.33;4.00;;;;;10.48;100.00;102038.97;5075883;28;46927;-76
2022/11/27 02:30:59;;;;;;;;;6.33;4.67;;;;;10.47;100.00;102031.91;5076775;28;45558;-77
2022/11/27 02:33:25;;;;;;;;;10.50;5.50;;;;;10.46;100.00;102032.75;5074190;28;45292;-76
2022/11/27 02:36:06;;;;;;;;;5.25;3.50;;;;;10.48;100.00;102033.69;5041556;28;45582;-77
2022/11/27 02:38:38;;;;;;;;;5.67;3.00;;;;;10.46;100.00;102035.41;5074214;28;47549;-77
2022/11/27 02:41:08;;;;;;;;;12.33;4.67;;;;;10.48;100.00;102038.97;5056745;28;45445;-76
2022/11/27 02:43:37;;;;;;;;;3.33;3.00;;;;;10.46;100.00;102027.47;5056794;28;45509;-75
2022/11/27 02:46:05;;;;;;;;;10.33;5.33;;;;;10.48;100.00;102031.06;5043586;28;45514;-77
2022/11/27 02:48:36;;;;;;;;;11.00;7.75;;;;;10.48;100.00;102028.41;5056809;28;46642;-76
2022/11/27 02:51:02;;;;;;;;;7.33;6.33;;;;;10.48;100.00;102014.31;5069285;28;45404;-76
2022/11/27 02:53:32;;;;;;;;;10.75;5.50;;;;;10.46;100.00;102003.72;5076333;28;47026;-76
2022/11/27 02:55:57;;;;;;;;;6.75;6.75;;;;;10.49;100.00;102003.81;5060171;28;45271;-77
2022/11/27 02:58:26;;;;;;;;;7.00;5.00;;;;;10.51;100.00;102001.22;5058346;28;61445;-76
2022/11/27 03:00:53;;;;;;;;;4.00;3.67;;;;;10.53;100.00;102003.91;5059524;28;45283;-76
2022/11/27 03:03:24;;;;;;;;;9.00;5.33;;;;;10.53;100.00;102001.25;5074021;28;45312;-75
2022/11/27 03:05:54;;;;;;;;;7.33;4.00;;;;;10.53;100.00;102001.25;5075745;28;45580;-76
2022/11/27 03:08:27;;;;;;;;;5.00;4.25;;;;;10.55;100.00;102004.84;5078196;28;45412;-76
2022/11/27 03:11:05;;;;;;;;;3.00;3.00;;;;;10.55;100.00;102005.75;5074964;28;45438;-75
2022/11/27 03:13:36;;;;;;;;;8.00;4.67;;;;;10.48;100.00;101986.16;5073958;28;45487;-75
2022/11/27 03:16:35;;;;;;;;;4.67;4.00;;;;;10.53;100.00;101990.69;5067266;28;45403;-76
2022/11/27 03:19:07;;;;;;;;;6.00;3.00;;;;;10.53;100.00;101972.22;5077573;28;45956;-76
2022/11/27 03:21:48;;;;;;;;;3.00;3.00;;;;;10.51;100.00;101971.28;5078469;28;45291;-76
2022/11/27 03:24:13;;;;;;;;;7.00;4.00;;;;;10.51;100.00;101971.28;5056287;28;45331;-77
2022/11/27 03:26:39;;;;;;;;;10.00;4.00;;;;;10.51;100.00;101971.28;5075307;28;45352;-76
2022/11/27 03:29:08;;;;;;;;;3.00;3.00;;;;;10.52;100.00;101959.84;5058728;28;45453;-76
2022/11/27 03:31:33;;;;;;;;;4.00;3.00;;;;;10.52;100.00;101947.53;5051024;28;45395;-76
2022/11/27 03:33:59;;;;;;;;;7.33;4.00;;;;;10.52;100.00;101949.28;5059632;28;45323;-77
2022/11/27 03:36:24;;;;;;;;;4.67;3.00;;;;;10.51;100.00;101942.22;5059893;28;45431;-76
2022/11/27 03:38:51;;;;;;;;;6.00;4.00;;;;;10.49;100.00;101935.16;5041727;28;69900;-76
2022/11/27 03:41:26;;;;;;;;;5.33;3.67;;;;;10.56;100.00;101927.41;5076427;28;45487;-75
2022/11/27 03:44:02;;;;;;;;;5.00;4.00;;;;;10.54;100.00;101929.09;5067756;28;45216;-76
2022/11/27 03:46:39;;;;;;;;;3.67;3.67;;;;;10.51;100.00;101931.66;5059033;28;45295;-75
2022/11/27 03:49:13;;;;;;;;;7.00;3.67;;;;;10.52;100.00;101926.41;5070067;28;47151;-76
2022/11/27 03:51:57;;;;;;;;;8.50;3.00;;;;;10.52;100.00;101929.06;5056973;28;45816;-76
2022/11/27 03:54:48;;;;;;;;;6.00;3.33;;;;;10.52;100.00;101929.06;5055696;28;45252;-78
2022/11/27 03:57:21;;;;;;;;;4.00;4.00;;;;;10.53;100.00;101935.22;5065506;28;45241;-75
2022/11/27 03:59:48;;;;;;;;;6.33;3.67;;;;;10.51;100.00;101937.84;5054445;28;45613;-76
2022/11/27 04:02:16;;;;;;;;;4.00;3.00;;;;;10.54;100.00;101942.31;5059547;28;45585;-76
2022/11/27 04:04:42;;;;;;;;;6.00;3.67;;;;;10.52;100.00;101938.72;5057963;28;45264;-76
2022/11/27 04:07:13;;;;;;;;;4.00;2.67;;;;;10.53;100.00;101932.59;5057482;28;45602;-77
2022/11/27 04:09:38;;;;;;;;;3.00;3.00;;;;;10.55;100.00;101930.91;5055586;28;46665;-76
2022/11/27 04:12:04;;;;;;;;;7.33;4.00;;;;;10.54;100.00;101932.63;5069662;28;55400;-76
2022/11/27 04:14:29;;;;;;;;;2.33;2.33;;;;;10.51;100.00;101927.28;5076519;28;45524;-76
2022/11/27 04:16:55;;;;;;;;;3.75;3.00;;;;;10.49;100.00;101931.59;5075908;28;57006;-75
2022/11/27 04:19:20;;;;;;;;;6.67;4.00;;;;;10.50;100.00;101936.06;5076191;28;65712;-76
2022/11/27 04:21:45;;;;;;;;;4.25;4.00;;;;;10.50;100.00;101936.06;5076820;28;46604;-76
2022/11/27 04:24:11;;;;;;;;;6.00;3.00;;;;;10.47;100.00;101918.38;5074761;28;58955;-77
2022/11/27 04:26:36;;;;;;;;;5.00;5.00;;;;;10.49;100.00;101919.31;5076414;28;60008;-76
2022/11/27 04:29:01;;;;;;;;;8.00;4.00;;;;;10.49;100.00;101918.41;5075790;28;65169;-76
2022/11/27 04:31:26;;;;;;;;;3.00;3.00;;;;;10.51;100.00;101919.34;5068354;28;63234;-77
2022/11/27 04:33:52;;;;;;;;;3.00;3.00;;;;;10.49;100.00;101911.41;5076525;28;53750;-76
2022/11/27 04:36:17;;;;;;;;;10.33;7.00;;;;;10.53;100.00;101906.19;5075861;28;55069;-75
2022/11/27 04:38:42;;;;;;;;;3.67;3.67;;;;;10.53;100.00;101903.53;5075760;28;60730;-77
2022/11/27 04:41:08;;;;;;;;;8.00;7.00;;;;;10.52;100.00;101885.91;5074123;28;63530;-76
2022/11/27 04:43:33;;;;;;;;;6.00;6.00;;;;;10.54;100.00;101886.84;5076931;28;45290;-76
2022/11/27 04:45:58;;;;;;;;;7.67;5.67;;;;;10.55;100.00;101875.47;5070235;28;57794;-75
2022/11/27 04:48:24;;;;;;;;;8.00;3.00;;;;;10.56;100.00;101877.25;5057861;28;45949;-76
2022/11/27 04:50:49;;;;;;;;;9.00;5.33;;;;;10.56;100.00;101866.69;5075760;28;56576;-77
2022/11/27 04:53:14;;;;;;;;;3.00;3.00;;;;;10.56;100.00;101874.59;5057855;28;48222;-77
2022/11/27 04:55:40;;;;;;;;;4.67;3.00;;;;;10.54;100.00;101863.06;5073090;28;45442;-77
2022/11/27 04:58:05;;;;;;;;;4.00;4.00;;;;;10.54;100.00;101871.00;5077756;27;60301;-76
2022/11/27 05:00:30;;;;;;;;;7.33;4.33;;;;;10.54;100.00;101863.97;5075879;27;62495;-77
2022/11/27 05:02:56;;;;;;;;;3.67;3.67;;;;;10.53;100.00;101861.28;5063611;28;45438;-76
2022/11/27 05:05:21;;;;;;;;;8.67;3.00;;;;;10.53;100.00;101861.28;5075808;28;58575;-76
2022/11/27 05:07:46;;;;;;;;;3.00;3.00;;;;;10.55;100.00;101870.19;5076546;28;45659;-76
2022/11/27 05:10:12;;;;;;;;;3.67;3.00;;;;;10.55;100.00;101851.69;5075598;28;62578;-76
2022/11/27 05:12:37;;;;;;;;;4.67;4.67;;;;;10.56;100.00;101858.75;5076175;28;45257;-76
2022/11/27 05:15:03;;;;;;;;;5.33;3.00;;;;;10.55;100.00;101847.31;5077111;28;45684;-76
2022/11/27 05:17:28;;;;;;;;;6.33;4.00;;;;;10.52;100.00;101838.38;5074273;28;46656;-76
2022/11/27 05:19:53;;;;;;;;;5.67;3.67;;;;;10.54;100.00;101844.59;5077898;28;61532;-76
2022/11/27 05:22:19;;;;;;;;;3.67;3.67;;;;;10.54;100.00;101842.84;5079781;28;54653;-76
2022/11/27 05:24:44;;;;;;;;;4.67;4.67;;;;;10.54;100.00;101845.47;5079141;28;53695;-75
2022/11/27 05:27:09;;;;;;;;;4.00;4.00;;;;;10.54;100.00;101844.59;5075875;28;46352;-76
2022/11/27 05:29:35;;;;;;;;;6.00;5.33;;;;;10.54;100.00;101856.03;5075817;28;46213;-77
2022/11/27 05:32:00;;;;;;;;;9.67;6.00;;;;;10.54;100.00;101855.16;5078441;28;61473;-77
2022/11/27 05:34:26;;;;;;;;;11.33;4.33;;;;;10.55;100.00;101862.25;5064658;28;45240;-76
2022/11/27 05:36:51;;;;;;;;;7.67;5.00;;;;;10.53;100.00;101851.63;5079138;27;48240;-76
2022/11/27 05:39:16;;;;;;;;;3.00;3.00;;;;;10.52;100.00;101841.03;5079738;28;45331;-76
2022/11/27 05:41:42;;;;;;;;;7.00;4.00;;;;;10.53;100.00;101845.44;5075394;28;45455;-76
2022/11/27 05:44:12;;;;;;;;;4.00;4.00;;;;;10.54;100.00;101834.03;5079961;28;45351;-76
2022/11/27 05:46:37;;;;;;;;;6.00;4.00;;;;;10.55;100.00;101830.56;5078987;28;47499;-75
2022/11/27 05:49:02;;;;;;;;;7.00;3.00;;;;;10.56;100.00;101833.25;5079387;28;45271;-76
2022/11/27 05:51:28;;;;;;;;;7.00;4.00;;;;;10.56;100.00;101837.63;5081519;27;45906;-76
2022/11/27 05:53:53;;;;;;;;;5.00;4.00;;;;;10.55;100.00;101835.84;5079591;28;45505;-76
2022/11/27 05:56:18;;;;;;;;;7.67;4.00;;;;;10.55;100.00;101834.09;5054813;28;63709;-76
2022/11/27 05:58:45;;;;;;;;;8.00;3.67;;;;;10.56;100.00;101830.59;5066001;28;56412;-76
2022/11/27 06:01:12;;;;;;;;;6.67;6.67;;;;;10.56;100.00;101829.72;5079551;28;45291;-76
2022/11/27 06:03:40;;;;;;;;;8.33;6.33;;;;;10.56;100.00;101820.03;5070866;28;45514;-76
2022/11/27 06:06:10;;;;;;;;;8.67;4.00;;;;;10.54;100.00;101829.63;5079219;28;46740;-76
2022/11/27 06:08:36;;;;;;;;;10.00;4.00;;;;;10.53;100.00;101832.25;5074164;28;45580;-76
2022/11/27 06:11:07;;;;;;;;;7.33;6.00;;;;;10.48;100.00;101819.81;5078844;28;45215;-76
2022/11/27 06:13:32;;;;;;;;;7.50;4.00;;;;;10.49;100.00;101824.25;5079496;28;45374;-76
2022/11/27 06:15:58;;;;;;;;;7.00;4.67;;;;;10.47;100.00;101827.69;5076902;28;45540;-76
2022/11/27 06:18:23;;;;;;;;;4.00;4.00;;;;;10.47;100.00;101827.69;5078457;28;61945;-76
2022/11/27 06:20:48;;;;;;;;;4.67;4.00;;;;;10.49;100.00;101828.63;5079449;28;45553;-76
2022/11/27 06:23:14;;;;;;;;;6.00;6.00;;;;;10.45;100.00;101817.09;5078540;28;57548;-76
2022/11/27 06:25:39;;;;;;;;;6.00;4.00;;;;;10.48;100.00;101819.81;5078620;28;59390;-76
2022/11/27 06:28:04;;;;;;;;;6.00;4.00;;;;;10.47;100.00;101809.22;5077078;28;45569;-76
2022/11/27 06:30:30;;;;;;;;;7.00;4.00;;;;;10.47;100.00;101807.47;5077738;28;61478;-77
2022/11/27 06:32:55;;;;;;;;;8.50;4.00;;;;;10.46;100.00;101796.88;5077066;28;62311;-77
2022/11/27 06:35:21;;;;;;;;;9.50;4.75;;;;;10.44;100.00;101786.28;5071337;28;56214;-76
2022/11/27 06:37:47;;;;;;;;;4.00;4.00;;;;;10.45;100.00;101793.34;5076403;28;45534;-76
2022/11/27 06:40:12;;;;;;;;;5.33;5.33;;;;;10.46;100.00;101792.47;5079223;28;45643;-76
2022/11/27 06:42:37;;;;;;;;;4.75;4.75;;;;;10.48;100.00;101792.50;5064395;28;45659;-76
2022/11/27 06:45:03;;;;;;;;;14.00;3.75;;;;;10.49;100.00;101789.94;5065125;28;66547;-76
2022/11/27 06:47:28;;;;;;;;;6.75;4.00;;;;;10.50;100.00;101796.09;5078528;28;46148;-76
2022/11/27 06:49:54;;;;;;;;;6.00;4.00;;;;;10.48;100.00;101787.22;5077798;28;58813;-75
2022/11/27 06:52:19;;;;;;;;;4.33;4.33;;;;;10.51;100.00;101786.44;5077949;28;59286;-76
2022/11/27 06:54:44;;;;;;;;;4.00;4.00;;;;;10.50;100.00;101780.25;5077579;28;63556;-76
2022/11/27 06:57:10;;;;;;;;;6.00;4.00;;;;;10.49;100.00;101763.53;5077956;28;60414;-76
2022/11/27 06:59:35;;;;;;;;;4.00;4.00;;;;;10.51;100.00;101768.84;5074946;28;45508;-76
2022/11/27 07:02:00;;;;;;;;;6.00;6.00;;;;;10.49;100.00;101779.38;5085189;22;57515;-75
2022/11/27 07:04:26;;;;;;;;;3.00;3.00;;;;;10.47;100.00;101781.06;5103593;27;45551;-75
2022/11/27 07:06:52;;;;;;;;;3.25;3.00;;;;;10.52;100.00;101788.22;5118596;27;54304;-75
2022/11/27 07:09:18;;;;;;;;;7.67;4.00;;;;;10.54;100.00;101786.50;5118816;27;57095;-75
2022/11/27 07:11:43;;;;;;;;;4.00;4.00;;;;;10.54;100.00;101765.38;5103157;27;59788;-75
2022/11/27 07:14:08;;;;;;;;;7.67;4.00;;;;;10.57;100.00;101774.28;5111032;27;63642;-75
2022/11/27 07:16:35;;;;;;;;;5.75;4.25;;;;;10.57;100.00;101770.75;5117736;27;47537;-76
2022/11/27 07:19:06;;;;;;;;;6.33;4.00;;;;;10.58;100.00;101785.72;5118004;27;45359;-76
2022/11/27 07:21:32;;;;;;;;;3.00;2.00;;;;;10.60;100.00;101778.72;5119505;27;45382;-76
2022/11/27 07:23:57;;;;;;;;;4.67;3.33;;;;;10.62;100.00;101784.97;5114278;27;45298;-75
2022/11/27 07:26:25;;;;;;;;;4.67;2.33;;;;;10.61;100.00;101776.16;5107537;27;45317;-76
2022/11/27 07:28:50;;;;;;;;;11.67;4.33;;;;;10.61;100.00;101770.88;5118584;27;45574;-75
2022/11/27 07:31:19;;;;;;;;;10.00;3.67;;;;;10.66;100.00;101784.19;5118114;27;55685;-75
2022/11/27 07:33:45;;;;;;;;;4.75;3.00;;;;;10.67;100.00;101780.69;5117362;27;46421;-75
2022/11/27 07:36:16;;;;;;;;;7.33;5.33;;;;;10.67;100.00;101772.78;5116941;27;67650;-76
2022/11/27 07:38:41;;;;;;;;;6.50;4.00;;;;;10.69;100.00;101773.69;5118785;27;45365;-75
2022/11/27 07:41:07;;;;;;;;;7.33;3.67;;;;;10.68;100.00;101774.56;5117733;27;45621;-76
2022/11/27 07:43:33;;;;;;;;;8.00;5.00;;;;;10.69;100.00;101771.06;5117121;27;45688;-76
2022/11/27 07:46:03;;;;;;;;;6.50;4.50;;;;;10.70;100.00;101771.09;5118541;27;45364;-75
2022/11/27 07:48:28;;;;;;;;;5.33;4.67;;;;;10.68;100.00;101756.06;5117327;27;45318;-76
2022/11/27 07:50:53;;;;;;;;;7.00;5.33;;;;;10.68;100.00;101764.88;5118094;27;56685;-75
2022/11/27 07:53:19;;;;;;;;;3.00;3.00;;;;;10.73;100.00;101775.56;5116912;27;69606;-75
2022/11/27 07:55:44;;;;;;;;;9.33;6.33;;;;;10.73;100.00;101779.09;5133348;27;64655;-75
2022/11/27 07:58:09;;;;;;;;;5.33;3.33;;;;;10.72;100.00;101773.78;5115894;27;45627;-75
2022/11/27 08:00:35;;;;;;;;;4.00;4.00;;;;;10.70;100.00;101780.75;5115204;27;56066;-75
2022/11/27 08:03:01;;;;;;;;;5.33;3.00;;;;;10.70;100.00;101771.09;5117685;27;45695;-75
2022/11/27 08:05:26;;;;;;;;;7.00;5.33;;;;;10.72;100.00;101779.06;5118417;27;45156;-75
2022/11/27 08:07:52;;;;;;;;;8.00;8.00;;;;;10.70;100.00;101789.56;5117706;27;45625;-75
2022/11/27 08:10:17;;;;;;;;;7.00;7.00;;;;;10.70;100.00;101781.66;5115839;27;45369;-74
2022/11/27 08:12:42;;;;;;;;;7.67;3.67;;;;;10.67;100.00;101763.09;5110710;27;45388;-75
2022/11/27 08:15:09;;;;;;;;;11.67;6.00;;;;;10.69;100.00;101765.78;5126702;27;55696;-77
2022/11/27 08:17:34;;;;;;;;;4.00;4.00;;;;;10.67;100.00;101756.94;5117149;27;45380;-76
2022/11/27 08:20:00;;;;;;;;;9.33;5.33;;;;;10.67;100.00;101759.56;5117664;27;45350;-75
2022/11/27 08:22:25;;;;;;;;;7.00;4.00;;;;;10.66;100.00;101761.31;5116140;27;45655;-76
2022/11/27 08:24:51;;;;;;;;;8.00;4.00;;;;;10.67;100.00;101760.47;5117067;27;45314;-76
2022/11/27 08:27:17;;;;;;;;;8.00;5.00;;;;;10.66;100.00;101736.66;5116398;27;45364;-75
2022/11/27 08:29:42;;;;;;;;;6.67;5.67;;;;;10.69;100.00;101729.69;5116874;27;55289;-76
2022/11/27 08:32:08;;;;;;;;;7.00;3.50;;;;;10.71;100.00;101721.81;5116062;27;46840;-76
2022/11/27 08:34:33;;;;;;;;;7.33;4.67;;;;;10.72;100.00;101740.34;5116926;27;45445;-74
2022/11/27 08:36:59;;;;;;;;;4.00;4.00;;;;;10.73;100.00;101730.66;5115137;27;57389;-74
2022/11/27 08:39:25;;;;;;;;;9.00;4.00;;;;;10.74;100.00;101735.97;5116390;27;48836;-74
2022/11/27 08:41:51;;;;;;;;;9.00;4.67;;;;;10.73;100.00;101731.56;5115096;27;46813;-74
2022/11/27 08:44:16;;;;;;;;;7.00;4.00;;;;;10.76;100.00;101728.13;5116498;27;45572;-74
2022/11/27 08:46:42;;;;;;;;;6.00;6.00;;;;;10.79;100.00;101724.63;5116591;27;45515;-76
2022/11/27 08:49:08;;;;;;;;;10.00;7.00;;;;;10.75;100.00;101716.63;5098611;27;45485;-76
2022/11/27 08:51:33;;;;;;;;;8.67;7.00;;;;;10.82;100.00;101717.69;5116599;27;57928;-76
2022/11/27 08:53:58;;;;;;;;;10.33;7.00;;;;;10.83;100.00;101705.38;5116299;27;59397;-75
2022/11/27 08:56:25;;;;;;;;;7.67;4.67;;;;;10.87;100.00;101717.81;5117259;27;45594;-75
2022/11/27 08:58:50;;;;;;;;;7.00;4.00;;;;;10.88;100.00;101704.63;5116954;27;45397;-75
2022/11/27 09:01:21;;;;;;;;;11.00;7.00;;;;;10.90;100.00;101694.06;5117593;27;46511;-75
2022/11/27 09:03:47;;;;;;;;;9.50;7.25;;;;;10.93;100.00;101687.13;5115616;27;45541;-75
2022/11/27 09:06:15;;;;;;;;;10.00;5.67;;;;;10.94;100.00;101675.69;5116616;27;46042;-74
2022/11/27 09:08:41;;;;;;;;;7.00;7.00;;;;;10.96;100.00;101671.31;5116181;27;45424;-75
2022/11/27 09:11:08;;;;;;;;;8.67;8.67;;;;;11.00;100.00;101674.94;5111834;27;46435;-75
2022/11/27 09:13:35;;;;;;;;;10.00;7.00;;;;;10.98;100.00;101659.06;5115197;27;45452;-76
2022/11/27 09:16:02;;;;;;;;;9.00;7.00;;;;;11.01;100.00;101659.09;5117262;27;45379;-75
2022/11/27 09:18:27;;;;;;;;;8.00;8.00;;;;;11.06;100.00;101676.81;5116031;27;45607;-75
2022/11/27 09:21:01;;;;;;;;;8.00;6.33;;;;;11.07;100.00;101668.91;5116820;27;62507;-74
2022/11/27 09:23:27;;;;;;;;;7.67;5.33;;;;;11.09;100.00;101655.78;5113152;27;45453;-74
2022/11/27 09:25:52;;;;;;;;;6.67;4.67;;;;;11.10;100.00;101646.97;5119838;27;45325;-76
2022/11/27 09:28:18;;;;;;;;;6.33;6.33;;;;;11.09;100.00;101663.69;5117139;27;50378;-75
2022/11/27 09:30:43;;;;;;;;;9.00;8.75;;;;;11.08;100.00;101661.88;5119790;27;46825;-75
2022/11/27 09:33:09;;;;;;;;;8.50;7.25;;;;;11.09;100.00;101650.47;5116764;27;45518;-75
2022/11/27 09:35:36;;;;;;;;;7.33;6.67;;;;;11.11;100.00;101648.75;5116307;27;59421;-75
2022/11/27 09:38:02;;;;;;;;;8.00;7.00;;;;;11.15;100.00;101640.03;5115087;27;45326;-75
2022/11/27 09:40:27;;;;;;;;;4.67;4.67;;;;;11.18;100.00;101638.31;5129535;27;46703;-75
2022/11/27 09:42:57;;;;;;;;;7.67;6.33;;;;;11.20;100.00;101623.41;5114132;27;45453;-74
2022/11/27 09:45:23;;;;;;;;;7.00;7.00;;;;;11.23;100.00;101618.16;5114142;27;45418;-75
2022/11/27 09:47:53;;;;;;;;;9.67;4.67;;;;;11.24;100.00;101598.84;5113018;27;61200;-75
2022/11/27 09:50:23;;;;;;;;;4.00;2.00;;;;;11.27;100.00;101613.84;5126551;27;46529;-76
2022/11/27 09:53:10;;;;;;;;;8.00;8.00;;;;;11.31;100.00;101607.78;5116720;27;45493;-75
2022/11/27 09:55:47;;;;;;;;;8.00;7.00;;;;;11.35;100.00;101606.09;5116627;27;45338;-75
2022/11/27 09:58:35;;;;;;;;;8.67;5.00;;;;;11.40;100.00;101614.97;5113026;27;45399;-75
2022/11/27 10:01:08;;;;;;;;;7.67;5.00;;;;;11.38;100.00;101614.97;5115646;27;46045;-75
2022/11/27 10:03:34;;;;;;;;;8.67;7.00;;;;;11.36;100.00;101611.41;5099421;27;45917;-75
2022/11/27 10:06:10;;;;;;;;;8.33;5.00;;;;;11.37;100.00;101612.28;5119626;27;59600;-75
2022/11/27 10:08:40;;;;;;;;;9.00;4.00;;;;;11.40;100.00;101623.84;5118884;27;45663;-75
2022/11/27 10:11:29;;;;;;;;;4.00;4.00;;;;;11.38;100.00;101622.88;5117725;27;46645;-75
2022/11/27 10:14:16;;;;;;;;;4.33;4.33;;;;;11.39;100.00;101626.41;5119670;27;45475;-75
2022/11/27 10:16:51;;;;;;;;;7.67;5.00;;;;;11.37;100.00;101615.81;5120134;27;45504;-75
2022/11/27 10:19:25;;;;;;;;;9.67;7.00;;;;;11.37;100.00;101631.69;5118626;27;45672;-75
2022/11/27 10:22:15;;;;;;;;;7.00;4.67;;;;;11.39;100.00;101621.13;5119224;27;47478;-74
2022/11/27 10:24:57;;;;;;;;;9.33;7.00;;;;;11.33;100.00;101618.38;5119132;27;45526;-74
2022/11/27 10:27:32;;;;;;;;;8.67;7.00;;;;;11.38;100.00;101636.09;5119950;27;45429;-75
2022/11/27 10:29:58;;;;;;;;;9.00;7.33;;;;;11.41;100.00;101619.44;5118736;27;45514;-74
2022/11/27 10:32:28;;;;;;;;;6.00;4.33;;;;;11.43;100.00;101618.59;5113436;27;73530;-74
2022/11/27 10:35:00;;;;;;;;;8.00;7.00;;;;;11.44;100.00;101615.06;5116007;27;45460;-74
2022/11/27 10:38:10;;;;;;;;;10.33;7.00;;;;;11.46;100.00;101602.78;5117956;27;45340;-74
2022/11/27 10:40:44;;;;;;;;;7.00;5.00;;;;;11.49;100.00;101602.84;5011341;28;45586;-74
2022/11/27 10:43:17;;;;;;;;;8.33;7.00;;;;;11.46;100.00;101597.50;5098512;27;47741;-75
2022/11/27 10:45:56;;;;;;;;;4.33;3.00;;;;;11.50;100.00;101606.38;5108167;27;45531;-74
2022/11/27 10:48:22;;;;;;;;;9.33;8.00;;;;;11.50;100.00;101606.38;5110637;27;45580;-75
2022/11/27 10:50:48;;;;;;;;;8.67;7.33;;;;;11.53;100.00;101591.47;5118806;27;45653;-75
2022/11/27 10:53:22;;;;;;;;;7.33;7.00;;;;;11.55;100.00;101587.09;5117840;27;47416;-75
2022/11/27 10:55:56;;;;;;;;;8.33;7.00;;;;;11.59;100.00;101595.09;5121196;27;45450;-74
2022/11/27 10:58:46;;;;;;;;;4.33;4.33;;;;;11.58;100.00;101588.03;5119537;27;45509;-78
2022/11/27 11:01:14;;;;;;;;;9.33;8.00;;;;;11.60;100.00;101586.28;5086191;27;45589;-78
2022/11/27 11:03:39;;;;;;;;;9.00;9.00;;;;;11.57;100.00;101578.31;5099258;27;47566;-77
2022/11/27 11:06:12;;;;;;;;;8.50;8.50;;;;;11.48;100.00;101581.66;5117643;27;45509;-78
2022/11/27 11:08:38;;;;;;;;;12.25;11.00;;;;;11.40;100.00;101577.97;5112368;27;45271;-77
2022/11/27 11:11:06;;;;;;;;;12.00;11.33;;;;;11.31;100.00;101583.09;5131428;27;56658;-76
2022/11/27 11:13:52;;;;;;;;;7.00;7.00;;;;;11.27;100.00;101572.44;5100089;27;48553;-77
2022/11/27 11:16:21;;;;;;;;;10.00;10.00;;;;;11.23;100.00;101567.06;5111672;27;45291;-82
2022/11/27 11:18:49;;;;;;;;;8.67;7.33;;;;;11.18;100.00;101555.50;5118705;27;45465;-74
2022/11/27 11:21:17;;;;;;;;;9.75;8.50;;;;;11.10;100.00;101551.81;5119914;27;45459;-76
2022/11/27 11:23:45;;;;;;;;;8.00;8.00;;;;;11.06;100.00;101528.84;5119470;27;46336;-76